sensor_id;sensor_type;location;lat;lon;timestamp;temperature;humidity
9223;DHT22;7557;51.698;3.942;2023-02-15T00:00:19;6.50;99.90
9223;DHT22;7557;51.698;3.942;2023-02-15T00:02:46;6.50;99.90
9223;DHT22;7557;51.698;3.942;2023-02-15T00:05:14;6.50;99.90
9223;DHT22;7557;51.698;3.942;2023-02-15T00:07:41;6.40;99.90
9223;DHT22;7557;51.698;3.942;2023-02-15T00:10:08;6.40;99.90
9223;DHT22;7557;51.698;3.942;2023-02-15T00:12:39;6.30;99.90
9223;DHT22;7557;51.698;3.942;2023-02-15T00:15:06;6.20;99.90
9223;DHT22;7557;51.698;3.942;2023-02-15T00:17:34;6.10;99.90
9223;DHT22;7557;51.698;3.942;2023-02-15T00:20:01;6.00;99.90
9223;DHT22;7557;51.698;3.942;2023-02-15T00:22:28;6.00;99.90
9223;DHT22;7557;51.698;3.942;2023-02-15T00:24:55;6.00;99.90
9223;DHT22;7557;51.698;3.942;2023-02-15T00:27:22;5.90;99.90
9223;DHT22;7557;51.698;3.942;2023-02-15T00:29:51;5.90;99.90
9223;DHT22;7557;51.698;3.942;2023-02-15T00:32:18;5.90;99.90
9223;DHT22;7557;51.698;3.942;2023-02-15T00:34:45;5.90;99.90
9223;DHT22;7557;51.698;3.942;2023-02-15T00:37:12;5.90;99.90
9223;DHT22;7557;51.698;3.942;2023-02-15T00:39:39;5.90;99.90
9223;DHT22;7557;51.698;3.942;2023-02-15T00:42:07;5.90;99.90
9223;DHT22;7557;51.698;3.942;2023-02-15T00:44:34;5.90;99.90
9223;DHT22;7557;51.698;3.942;2023-02-15T00:47:02;5.90;99.90
9223;DHT22;7557;51.698;3.942;2023-02-15T00:52:52;6.00;99.90
9223;DHT22;7557;51.698;3.942;2023-02-15T00:55:19;6.10;99.90
9223;DHT22;7557;51.698;3.942;2023-02-15T00:57:46;6.10;99.90
9223;DHT22;7557;51.698;3.942;2023-02-15T01:00:14;6.00;99.90
9223;DHT22;7557;51.698;3.942;2023-02-15T01:02:42;5.90;99.90
9223;DHT22;7557;51.698;3.942;2023-02-15T01:05:09;5.70;99.90
9223;DHT22;7557;51.698;3.942;2023-02-15T01:07:37;5.70;99.90
9223;DHT22;7557;51.698;3.942;2023-02-15T01:10:05;5.70;99.90
9223;DHT22;7557;51.698;3.942;2023-02-15T01:12:32;5.60;99.90
9223;DHT22;7557;51.698;3.942;2023-02-15T01:14:59;5.50;99.90
9223;DHT22;7557;51.698;3.942;2023-02-15T01:17:26;5.40;99.90
9223;DHT22;7557;51.698;3.942;2023-02-15T01:19:55;5.30;99.90
9223;DHT22;7557;51.698;3.942;2023-02-15T01:22:23;5.20;99.90
9223;DHT22;7557;51.698;3.942;2023-02-15T01:24:50;5.10;99.90
9223;DHT22;7557;51.698;3.942;2023-02-15T01:27:17;5.10;99.90
9223;DHT22;7557;51.698;3.942;2023-02-15T01:29:44;5.10;99.90
9223;DHT22;7557;51.698;3.942;2023-02-15T01:32:12;5.10;99.90
9223;DHT22;7557;51.698;3.942;2023-02-15T01:34:40;5.10;99.90
9223;DHT22;7557;51.698;3.942;2023-02-15T01:37:08;5.10;99.90
9223;DHT22;7557;51.698;3.942;2023-02-15T01:39:35;5.20;99.90
9223;DHT22;7557;51.698;3.942;2023-02-15T01:42:03;5.20;99.90
9223;DHT22;7557;51.698;3.942;2023-02-15T01:44:48;5.30;99.90
9223;DHT22;7557;51.698;3.942;2023-02-15T01:47:18;5.40;99.90
9223;DHT22;7557;51.698;3.942;2023-02-15T01:49:47;5.50;99.90
9223;DHT22;7557;51.698;3.942;2023-02-15T01:52:17;5.40;99.90
9223;DHT22;7557;51.698;3.942;2023-02-15T01:54:46;5.40;99.90
9223;DHT22;7557;51.698;3.942;2023-02-15T01:57:18;5.40;99.90
9223;DHT22;7557;51.698;3.942;2023-02-15T01:59:51;5.50;99.90
9223;DHT22;7557;51.698;3.942;2023-02-15T02:02:19;5.40;99.90
9223;DHT22;7557;51.698;3.942;2023-02-15T02:04:51;5.50;99.90
9223;DHT22;7557;51.698;3.942;2023-02-15T02:07:23;5.50;99.90
9223;DHT22;7557;51.698;3.942;2023-02-15T02:09:50;5.50;99.90
9223;DHT22;7557;51.698;3.942;2023-02-15T02:12:19;5.40;99.90
9223;DHT22;7557;51.698;3.942;2023-02-15T02:14:47;5.30;99.90
9223;DHT22;7557;51.698;3.942;2023-02-15T02:17:17;5.40;99.90
9223;DHT22;7557;51.698;3.942;2023-02-15T02:26:25;5.40;99.90
9223;DHT22;7557;51.698;3.942;2023-02-15T02:29:18;5.50;99.90
9223;DHT22;7557;51.698;3.942;2023-02-15T02:35:26;5.60;99.90
9223;DHT22;7557;51.698;3.942;2023-02-15T02:38:02;5.60;99.90
9223;DHT22;7557;51.698;3.942;2023-02-15T02:40:40;5.50;99.90
9223;DHT22;7557;51.698;3.942;2023-02-15T02:43:13;5.40;99.90
9223;DHT22;7557;51.698;3.942;2023-02-15T02:45:47;5.30;99.90
9223;DHT22;7557;51.698;3.942;2023-02-15T02:48:20;5.20;99.90
9223;DHT22;7557;51.698;3.942;2023-02-15T02:50:49;5.30;99.90
9223;DHT22;7557;51.698;3.942;2023-02-15T02:53:17;5.30;99.90
9223;DHT22;7557;51.698;3.942;2023-02-15T02:55:46;5.40;99.90
9223;DHT22;7557;51.698;3.942;2023-02-15T02:58:19;5.50;99.90
9223;DHT22;7557;51.698;3.942;2023-02-15T03:00:51;5.60;99.90
9223;DHT22;7557;51.698;3.942;2023-02-15T03:03:24;5.60;99.90
9223;DHT22;7557;51.698;3.942;2023-02-15T03:05:58;5.60;99.90
9223;DHT22;7557;51.698;3.942;2023-02-15T03:08:30;5.60;99.90
9223;DHT22;7557;51.698;3.942;2023-02-15T03:11:00;5.60;99.90
9223;DHT22;7557;51.698;3.942;2023-02-15T03:13:28;5.50;99.90
9223;DHT22;7557;51.698;3.942;2023-02-15T03:15:57;5.50;99.90
9223;DHT22;7557;51.698;3.942;2023-02-15T03:18:44;5.50;99.90
9223;DHT22;7557;51.698;3.942;2023-02-15T03:21:20;5.50;99.90
9223;DHT22;7557;51.698;3.942;2023-02-15T03:23:52;5.50;99.90
9223;DHT22;7557;51.698;3.942;2023-02-15T03:26:21;5.60;99.90
9223;DHT22;7557;51.698;3.942;2023-02-15T03:28:50;5.50;99.90
9223;DHT22;7557;51.698;3.942;2023-02-15T03:31:22;5.60;99.90
9223;DHT22;7557;51.698;3.942;2023-02-15T03:33:55;5.60;99.90
9223;DHT22;7557;51.698;3.942;2023-02-15T03:36:28;5.60;99.90
9223;DHT22;7557;51.698;3.942;2023-02-15T03:39:04;5.40;99.90
9223;DHT22;7557;51.698;3.942;2023-02-15T03:41:36;5.30;99.90
9223;DHT22;7557;51.698;3.942;2023-02-15T03:44:10;5.00;99.90
9223;DHT22;7557;51.698;3.942;2023-02-15T03:46:43;4.80;99.90
9223;DHT22;7557;51.698;3.942;2023-02-15T03:49:17;4.70;99.90
9223;DHT22;7557;51.698;3.942;2023-02-15T03:51:50;4.60;99.90
9223;DHT22;7557;51.698;3.942;2023-02-15T03:54:22;4.50;99.90
9223;DHT22;7557;51.698;3.942;2023-02-15T03:57:10;4.60;99.90
9223;DHT22;7557;51.698;3.942;2023-02-15T03:59:54;4.70;99.90
9223;DHT22;7557;51.698;3.942;2023-02-15T04:02:47;4.90;99.90
9223;DHT22;7557;51.698;3.942;2023-02-15T04:05:18;5.00;99.90
9223;DHT22;7557;51.698;3.942;2023-02-15T04:07:47;5.00;99.90
9223;DHT22;7557;51.698;3.942;2023-02-15T04:10:14;5.00;99.90
9223;DHT22;7557;51.698;3.942;2023-02-15T04:12:59;5.10;99.90
9223;DHT22;7557;51.698;3.942;2023-02-15T04:15:26;5.10;99.90
9223;DHT22;7557;51.698;3.942;2023-02-15T04:18:10;5.10;99.90
9223;DHT22;7557;51.698;3.942;2023-02-15T04:20:37;5.10;99.90
9223;DHT22;7557;51.698;3.942;2023-02-15T04:23:23;5.20;99.90
9223;DHT22;7557;51.698;3.942;2023-02-15T04:26:08;5.10;99.90
9223;DHT22;7557;51.698;3.942;2023-02-15T04:28:35;5.00;99.90
9223;DHT22;7557;51.698;3.942;2023-02-15T04:31:02;5.00;99.90
9223;DHT22;7557;51.698;3.942;2023-02-15T04:33:29;5.00;99.90
9223;DHT22;7557;51.698;3.942;2023-02-15T04:35:56;5.10;99.90
9223;DHT22;7557;51.698;3.942;2023-02-15T04:38:25;5.00;99.90
9223;DHT22;7557;51.698;3.942;2023-02-15T04:40:52;5.10;99.90
9223;DHT22;7557;51.698;3.942;2023-02-15T04:43:19;5.10;99.90
9223;DHT22;7557;51.698;3.942;2023-02-15T04:45:50;5.00;99.90
9223;DHT22;7557;51.698;3.942;2023-02-15T04:48:17;5.00;99.90
9223;DHT22;7557;51.698;3.942;2023-02-15T04:50:45;5.00;99.90
9223;DHT22;7557;51.698;3.942;2023-02-15T04:53:12;4.90;99.90
9223;DHT22;7557;51.698;3.942;2023-02-15T04:55:41;5.00;99.90
9223;DHT22;7557;51.698;3.942;2023-02-15T04:58:08;5.00;99.90
9223;DHT22;7557;51.698;3.942;2023-02-15T05:00:35;4.90;99.90
9223;DHT22;7557;51.698;3.942;2023-02-15T05:03:02;4.90;99.90
9223;DHT22;7557;51.698;3.942;2023-02-15T05:05:30;4.90;99.90
9223;DHT22;7557;51.698;3.942;2023-02-15T05:07:57;5.00;99.90
9223;DHT22;7557;51.698;3.942;2023-02-15T05:10:24;5.00;99.90
9223;DHT22;7557;51.698;3.942;2023-02-15T05:12:52;5.00;99.90
9223;DHT22;7557;51.698;3.942;2023-02-15T05:15:19;5.00;99.90
9223;DHT22;7557;51.698;3.942;2023-02-15T05:17:46;5.00;99.90
9223;DHT22;7557;51.698;3.942;2023-02-15T05:20:14;5.00;99.90
9223;DHT22;7557;51.698;3.942;2023-02-15T05:22:41;5.00;99.90
9223;DHT22;7557;51.698;3.942;2023-02-15T05:25:08;5.00;99.90
9223;DHT22;7557;51.698;3.942;2023-02-15T05:27:55;5.00;99.90
9223;DHT22;7557;51.698;3.942;2023-02-15T05:30:39;5.00;99.90
9223;DHT22;7557;51.698;3.942;2023-02-15T05:33:06;4.90;99.90
9223;DHT22;7557;51.698;3.942;2023-02-15T05:35:34;4.90;99.90
9223;DHT22;7557;51.698;3.942;2023-02-15T05:38:01;4.90;99.90
9223;DHT22;7557;51.698;3.942;2023-02-15T05:40:28;5.00;99.90
9223;DHT22;7557;51.698;3.942;2023-02-15T05:42:57;4.90;99.90
9223;DHT22;7557;51.698;3.942;2023-02-15T05:45:25;4.90;99.90
9223;DHT22;7557;51.698;3.942;2023-02-15T05:47:52;5.00;99.90
9223;DHT22;7557;51.698;3.942;2023-02-15T05:50:19;5.00;99.90
9223;DHT22;7557;51.698;3.942;2023-02-15T05:52:46;4.90;99.90
9223;DHT22;7557;51.698;3.942;2023-02-15T05:55:13;4.90;99.90
9223;DHT22;7557;51.698;3.942;2023-02-15T05:57:41;4.90;99.90
9223;DHT22;7557;51.698;3.942;2023-02-15T06:00:11;4.90;99.90
9223;DHT22;7557;51.698;3.942;2023-02-15T06:02:39;4.90;99.90
9223;DHT22;7557;51.698;3.942;2023-02-15T06:05:07;4.90;99.90
9223;DHT22;7557;51.698;3.942;2023-02-15T06:07:34;5.00;99.90
9223;DHT22;7557;51.698;3.942;2023-02-15T06:10:02;5.00;99.90
9223;DHT22;7557;51.698;3.942;2023-02-15T06:12:29;5.10;99.90
9223;DHT22;7557;51.698;3.942;2023-02-15T06:14:56;5.00;99.90
9223;DHT22;7557;51.698;3.942;2023-02-15T06:17:25;5.10;99.90
9223;DHT22;7557;51.698;3.942;2023-02-15T06:19:52;5.10;99.90
9223;DHT22;7557;51.698;3.942;2023-02-15T06:22:20;5.10;99.90
9223;DHT22;7557;51.698;3.942;2023-02-15T06:24:47;5.10;99.90
9223;DHT22;7557;51.698;3.942;2023-02-15T06:27:14;5.00;99.90
9223;DHT22;7557;51.698;3.942;2023-02-15T06:29:41;5.00;99.90
9223;DHT22;7557;51.698;3.942;2023-02-15T06:32:08;5.00;99.90
9223;DHT22;7557;51.698;3.942;2023-02-15T06:34:37;5.00;99.90
9223;DHT22;7557;51.698;3.942;2023-02-15T06:37:04;5.00;99.90
9223;DHT22;7557;51.698;3.942;2023-02-15T06:39:33;5.00;99.90
9223;DHT22;7557;51.698;3.942;2023-02-15T06:42:01;5.10;99.90
9223;DHT22;7557;51.698;3.942;2023-02-15T06:44:28;5.10;99.90
9223;DHT22;7557;51.698;3.942;2023-02-15T06:46:55;5.10;99.90
9223;DHT22;7557;51.698;3.942;2023-02-15T06:49:22;5.10;99.90
9223;DHT22;7557;51.698;3.942;2023-02-15T06:51:50;5.10;99.90
9223;DHT22;7557;51.698;3.942;2023-02-15T06:54:18;5.10;99.90
9223;DHT22;7557;51.698;3.942;2023-02-15T06:56:45;5.10;99.90
9223;DHT22;7557;51.698;3.942;2023-02-15T06:59:12;5.10;99.90
9223;DHT22;7557;51.698;3.942;2023-02-15T07:01:39;5.10;99.90
9223;DHT22;7557;51.698;3.942;2023-02-15T07:04:06;5.10;99.90
9223;DHT22;7557;51.698;3.942;2023-02-15T07:06:33;5.00;99.90
9223;DHT22;7557;51.698;3.942;2023-02-15T07:09:03;5.00;99.90
9223;DHT22;7557;51.698;3.942;2023-02-15T07:11:30;5.00;99.90
9223;DHT22;7557;51.698;3.942;2023-02-15T07:14:15;5.00;99.90
9223;DHT22;7557;51.698;3.942;2023-02-15T07:16:42;5.10;99.90
9223;DHT22;7557;51.698;3.942;2023-02-15T07:19:09;5.10;99.90
9223;DHT22;7557;51.698;3.942;2023-02-15T07:21:37;5.10;99.90
9223;DHT22;7557;51.698;3.942;2023-02-15T07:24:06;5.10;99.90
9223;DHT22;7557;51.698;3.942;2023-02-15T07:26:33;5.30;99.90
9223;DHT22;7557;51.698;3.942;2023-02-15T07:29:00;5.40;99.90
9223;DHT22;7557;51.698;3.942;2023-02-15T07:31:28;5.50;99.90
9223;DHT22;7557;51.698;3.942;2023-02-15T07:33:55;5.70;99.90
9223;DHT22;7557;51.698;3.942;2023-02-15T07:36:22;5.80;99.90
9223;DHT22;7557;51.698;3.942;2023-02-15T07:38:49;5.90;99.90
9223;DHT22;7557;51.698;3.942;2023-02-15T07:41:18;5.90;99.90
9223;DHT22;7557;51.698;3.942;2023-02-15T07:43:45;5.90;99.90
9223;DHT22;7557;51.698;3.942;2023-02-15T07:46:14;5.90;99.90
9223;DHT22;7557;51.698;3.942;2023-02-15T07:48:42;5.90;99.90
9223;DHT22;7557;51.698;3.942;2023-02-15T07:51:10;5.90;99.90
9223;DHT22;7557;51.698;3.942;2023-02-15T07:53:38;5.90;99.90
9223;DHT22;7557;51.698;3.942;2023-02-15T07:56:07;5.80;99.90
9223;DHT22;7557;51.698;3.942;2023-02-15T07:58:37;5.90;99.90
9223;DHT22;7557;51.698;3.942;2023-02-15T08:01:23;5.90;99.90
9223;DHT22;7557;51.698;3.942;2023-02-15T08:03:50;5.90;99.90
9223;DHT22;7557;51.698;3.942;2023-02-15T08:06:18;5.80;99.90
9223;DHT22;7557;51.698;3.942;2023-02-15T08:08:46;5.80;99.90
9223;DHT22;7557;51.698;3.942;2023-02-15T08:11:19;5.80;99.90
9223;DHT22;7557;51.698;3.942;2023-02-15T08:13:57;5.90;99.90
9223;DHT22;7557;51.698;3.942;2023-02-15T08:16:27;5.90;99.90
9223;DHT22;7557;51.698;3.942;2023-02-15T08:18:56;6.00;99.90
9223;DHT22;7557;51.698;3.942;2023-02-15T08:21:25;6.00;99.90
9223;DHT22;7557;51.698;3.942;2023-02-15T08:23:52;6.10;99.90
9223;DHT22;7557;51.698;3.942;2023-02-15T08:26:20;6.10;99.90
9223;DHT22;7557;51.698;3.942;2023-02-15T08:28:47;6.20;99.90
9223;DHT22;7557;51.698;3.942;2023-02-15T08:31:16;6.30;99.90
9223;DHT22;7557;51.698;3.942;2023-02-15T08:33:45;6.30;99.90
9223;DHT22;7557;51.698;3.942;2023-02-15T08:36:14;6.40;99.90
9223;DHT22;7557;51.698;3.942;2023-02-15T08:38:42;6.50;99.90
9223;DHT22;7557;51.698;3.942;2023-02-15T08:41:14;6.70;99.90
9223;DHT22;7557;51.698;3.942;2023-02-15T08:43:42;6.70;99.90
9223;DHT22;7557;51.698;3.942;2023-02-15T08:46:11;6.80;99.90
9223;DHT22;7557;51.698;3.942;2023-02-15T08:48:40;7.00;99.90
9223;DHT22;7557;51.698;3.942;2023-02-15T08:51:09;7.10;99.90
9223;DHT22;7557;51.698;3.942;2023-02-15T08:53:38;7.30;99.90
9223;DHT22;7557;51.698;3.942;2023-02-15T08:56:06;7.50;99.90
9223;DHT22;7557;51.698;3.942;2023-02-15T08:58:34;7.70;99.90
9223;DHT22;7557;51.698;3.942;2023-02-15T09:01:02;8.00;99.90
9223;DHT22;7557;51.698;3.942;2023-02-15T09:03:34;8.10;99.90
9223;DHT22;7557;51.698;3.942;2023-02-15T09:06:03;8.20;99.90
9223;DHT22;7557;51.698;3.942;2023-02-15T09:08:30;8.30;99.90
9223;DHT22;7557;51.698;3.942;2023-02-15T09:11:06;8.50;99.90
9223;DHT22;7557;51.698;3.942;2023-02-15T09:13:34;8.70;99.90
9223;DHT22;7557;51.698;3.942;2023-02-15T09:16:01;8.90;99.90
9223;DHT22;7557;51.698;3.942;2023-02-15T09:18:30;9.00;99.90
9223;DHT22;7557;51.698;3.942;2023-02-15T09:21:05;9.10;99.90
9223;DHT22;7557;51.698;3.942;2023-02-15T09:23:33;9.20;99.90
9223;DHT22;7557;51.698;3.942;2023-02-15T09:26:05;9.30;99.90
9223;DHT22;7557;51.698;3.942;2023-02-15T09:28:32;9.40;99.90
9223;DHT22;7557;51.698;3.942;2023-02-15T09:31:10;9.50;99.90
9223;DHT22;7557;51.698;3.942;2023-02-15T09:33:39;9.70;99.90
9223;DHT22;7557;51.698;3.942;2023-02-15T09:36:14;9.80;99.90
9223;DHT22;7557;51.698;3.942;2023-02-15T09:38:42;9.90;99.90
9223;DHT22;7557;51.698;3.942;2023-02-15T09:41:24;9.90;99.90
9223;DHT22;7557;51.698;3.942;2023-02-15T09:44:03;9.90;99.90
9223;DHT22;7557;51.698;3.942;2023-02-15T09:46:47;10.00;99.90
9223;DHT22;7557;51.698;3.942;2023-02-15T09:49:31;10.00;99.90
9223;DHT22;7557;51.698;3.942;2023-02-15T09:52:21;10.00;99.90
9223;DHT22;7557;51.698;3.942;2023-02-15T09:55:02;9.90;99.90
9223;DHT22;7557;51.698;3.942;2023-02-15T09:57:37;9.90;99.90
9223;DHT22;7557;51.698;3.942;2023-02-15T10:00:12;9.90;99.90
9223;DHT22;7557;51.698;3.942;2023-02-15T10:03:03;9.90;99.90
9223;DHT22;7557;51.698;3.942;2023-02-15T10:05:41;9.90;99.90
9223;DHT22;7557;51.698;3.942;2023-02-15T10:08:29;10.00;99.90
9223;DHT22;7557;51.698;3.942;2023-02-15T10:11:06;10.10;99.90
9223;DHT22;7557;51.698;3.942;2023-02-15T10:13:54;10.10;99.90
9223;DHT22;7557;51.698;3.942;2023-02-15T10:16:27;10.10;99.90
9223;DHT22;7557;51.698;3.942;2023-02-15T10:19:04;10.20;99.90
9223;DHT22;7557;51.698;3.942;2023-02-15T10:21:43;10.30;99.90
9223;DHT22;7557;51.698;3.942;2023-02-15T10:27:17;10.40;99.90
9223;DHT22;7557;51.698;3.942;2023-02-15T10:29:54;10.40;99.90
9223;DHT22;7557;51.698;3.942;2023-02-15T10:32:27;10.50;99.90
9223;DHT22;7557;51.698;3.942;2023-02-15T10:35:00;10.70;99.90
9223;DHT22;7557;51.698;3.942;2023-02-15T10:37:57;10.80;99.90
9223;DHT22;7557;51.698;3.942;2023-02-15T10:40:35;10.90;99.90
9223;DHT22;7557;51.698;3.942;2023-02-15T10:43:18;11.00;99.90
9223;DHT22;7557;51.698;3.942;2023-02-15T10:45:56;11.00;99.90
9223;DHT22;7557;51.698;3.942;2023-02-15T10:49:00;11.10;99.90
9223;DHT22;7557;51.698;3.942;2023-02-15T10:51:40;11.20;99.90
9223;DHT22;7557;51.698;3.942;2023-02-15T10:54:20;11.20;99.90
9223;DHT22;7557;51.698;3.942;2023-02-15T10:57:00;11.30;99.90
9223;DHT22;7557;51.698;3.942;2023-02-15T10:59:42;11.30;99.90
9223;DHT22;7557;51.698;3.942;2023-02-15T11:02:20;11.30;99.90
9223;DHT22;7557;51.698;3.942;2023-02-15T11:04:55;11.40;99.90
9223;DHT22;7557;51.698;3.942;2023-02-15T11:07:27;11.40;99.90
9223;DHT22;7557;51.698;3.942;2023-02-15T11:10:05;11.60;99.90
9223;DHT22;7557;51.698;3.942;2023-02-15T11:12:35;11.60;99.90
9223;DHT22;7557;51.698;3.942;2023-02-15T11:15:09;11.70;99.90
9223;DHT22;7557;51.698;3.942;2023-02-15T11:17:41;11.80;99.90
9223;DHT22;7557;51.698;3.942;2023-02-15T11:20:19;12.00;99.90
9223;DHT22;7557;51.698;3.942;2023-02-15T11:22:51;12.10;99.90
9223;DHT22;7557;51.698;3.942;2023-02-15T11:25:23;12.20;99.90
9223;DHT22;7557;51.698;3.942;2023-02-15T11:27:53;12.40;99.90
9223;DHT22;7557;51.698;3.942;2023-02-15T11:30:23;12.40;99.90
9223;DHT22;7557;51.698;3.942;2023-02-15T11:32:53;12.40;99.90
9223;DHT22;7557;51.698;3.942;2023-02-15T11:35:27;12.50;99.90
9223;DHT22;7557;51.698;3.942;2023-02-15T11:38:02;12.60;99.90
9223;DHT22;7557;51.698;3.942;2023-02-15T11:40:35;12.60;99.90
9223;DHT22;7557;51.698;3.942;2023-02-15T11:43:07;12.60;99.90
9223;DHT22;7557;51.698;3.942;2023-02-15T11:45:40;12.60;99.90
9223;DHT22;7557;51.698;3.942;2023-02-15T11:48:10;12.70;99.90
9223;DHT22;7557;51.698;3.942;2023-02-15T11:50:38;12.80;99.90
9223;DHT22;7557;51.698;3.942;2023-02-15T11:53:09;13.00;99.90
9223;DHT22;7557;51.698;3.942;2023-02-15T11:55:38;13.20;99.90
9223;DHT22;7557;51.698;3.942;2023-02-15T11:58:13;13.20;99.90
9223;DHT22;7557;51.698;3.942;2023-02-15T12:00:44;13.20;99.90
9223;DHT22;7557;51.698;3.942;2023-02-15T12:03:15;13.20;99.90
9223;DHT22;7557;51.698;3.942;2023-02-15T12:05:46;13.20;99.90
9223;DHT22;7557;51.698;3.942;2023-02-15T12:08:17;13.20;99.90
9223;DHT22;7557;51.698;3.942;2023-02-15T12:10:57;13.20;99.90
9223;DHT22;7557;51.698;3.942;2023-02-15T12:13:28;13.10;99.90
9223;DHT22;7557;51.698;3.942;2023-02-15T12:15:57;13.00;99.90
9223;DHT22;7557;51.698;3.942;2023-02-15T12:18:35;12.90;99.90
9223;DHT22;7557;51.698;3.942;2023-02-15T12:21:07;12.80;99.90
9223;DHT22;7557;51.698;3.942;2023-02-15T12:23:41;12.70;99.90
9223;DHT22;7557;51.698;3.942;2023-02-15T12:26:10;12.60;99.90
9223;DHT22;7557;51.698;3.942;2023-02-15T12:28:41;12.50;99.90
9223;DHT22;7557;51.698;3.942;2023-02-15T12:31:20;12.50;99.90
9223;DHT22;7557;51.698;3.942;2023-02-15T12:33:47;12.60;99.90
9223;DHT22;7557;51.698;3.942;2023-02-15T12:36:18;12.60;99.90
9223;DHT22;7557;51.698;3.942;2023-02-15T12:39:03;12.60;99.90
9223;DHT22;7557;51.698;3.942;2023-02-15T12:41:30;12.70;99.90
9223;DHT22;7557;51.698;3.942;2023-02-15T12:44:17;12.80;99.90
9223;DHT22;7557;51.698;3.942;2023-02-15T12:46:56;12.90;99.90
9223;DHT22;7557;51.698;3.942;2023-02-15T12:49:25;13.00;99.90
9223;DHT22;7557;51.698;3.942;2023-02-15T12:51:53;12.90;99.90
9223;DHT22;7557;51.698;3.942;2023-02-15T12:54:42;13.00;99.90
9223;DHT22;7557;51.698;3.942;2023-02-15T12:57:23;13.00;99.90
9223;DHT22;7557;51.698;3.942;2023-02-15T12:59:55;13.00;99.90
9223;DHT22;7557;51.698;3.942;2023-02-15T13:02:26;12.90;99.90
9223;DHT22;7557;51.698;3.942;2023-02-15T13:04:55;12.90;99.90
9223;DHT22;7557;51.698;3.942;2023-02-15T13:07:28;12.80;99.90
9223;DHT22;7557;51.698;3.942;2023-02-15T13:09:57;12.80;99.90
9223;DHT22;7557;51.698;3.942;2023-02-15T13:12:27;12.90;99.90
9223;DHT22;7557;51.698;3.942;2023-02-15T13:14:58;12.90;99.90
9223;DHT22;7557;51.698;3.942;2023-02-15T13:17:30;13.00;99.90
9223;DHT22;7557;51.698;3.942;2023-02-15T13:20:03;13.00;99.90
9223;DHT22;7557;51.698;3.942;2023-02-15T13:22:37;13.00;99.90
9223;DHT22;7557;51.698;3.942;2023-02-15T13:25:13;13.10;99.90
9223;DHT22;7557;51.698;3.942;2023-02-15T13:27:42;13.10;99.90
9223;DHT22;7557;51.698;3.942;2023-02-15T13:30:24;13.00;99.90
9223;DHT22;7557;51.698;3.942;2023-02-15T13:32:55;13.10;99.90
9223;DHT22;7557;51.698;3.942;2023-02-15T13:35:27;13.10;99.90
9223;DHT22;7557;51.698;3.942;2023-02-15T13:38:06;13.00;99.90
9223;DHT22;7557;51.698;3.942;2023-02-15T13:40:41;12.90;99.90
9223;DHT22;7557;51.698;3.942;2023-02-15T13:43:31;12.90;99.90
9223;DHT22;7557;51.698;3.942;2023-02-15T13:46:26;12.90;99.90
9223;DHT22;7557;51.698;3.942;2023-02-15T13:49:11;12.90;99.90
9223;DHT22;7557;51.698;3.942;2023-02-15T13:51:48;12.90;99.90
9223;DHT22;7557;51.698;3.942;2023-02-15T13:57:27;12.80;99.90
9223;DHT22;7557;51.698;3.942;2023-02-15T14:00:08;12.80;99.90
9223;DHT22;7557;51.698;3.942;2023-02-15T14:03:10;12.80;99.90
9223;DHT22;7557;51.698;3.942;2023-02-15T14:05:52;12.80;99.90
9223;DHT22;7557;51.698;3.942;2023-02-15T14:08:35;12.70;99.90
9223;DHT22;7557;51.698;3.942;2023-02-15T14:11:10;12.60;99.90
9223;DHT22;7557;51.698;3.942;2023-02-15T14:16:57;12.50;99.90
9223;DHT22;7557;51.698;3.942;2023-02-15T14:19:33;12.50;99.90
9223;DHT22;7557;51.698;3.942;2023-02-15T14:22:07;12.50;99.90
9223;DHT22;7557;51.698;3.942;2023-02-15T14:24:40;12.50;99.90
9223;DHT22;7557;51.698;3.942;2023-02-15T14:27:20;12.50;99.90
9223;DHT22;7557;51.698;3.942;2023-02-15T14:29:53;12.50;99.90
9223;DHT22;7557;51.698;3.942;2023-02-15T14:32:27;12.50;99.90
9223;DHT22;7557;51.698;3.942;2023-02-15T14:35:01;12.50;99.90
9223;DHT22;7557;51.698;3.942;2023-02-15T14:37:36;12.40;99.90
9223;DHT22;7557;51.698;3.942;2023-02-15T14:40:10;12.40;99.90
9223;DHT22;7557;51.698;3.942;2023-02-15T14:43:04;12.40;99.90
9223;DHT22;7557;51.698;3.942;2023-02-15T14:45:38;12.40;99.90
9223;DHT22;7557;51.698;3.942;2023-02-15T14:48:12;12.30;99.90
9223;DHT22;7557;51.698;3.942;2023-02-15T14:50:47;12.30;99.90
9223;DHT22;7557;51.698;3.942;2023-02-15T14:53:32;12.30;99.90
9223;DHT22;7557;51.698;3.942;2023-02-15T14:56:23;12.30;99.90
9223;DHT22;7557;51.698;3.942;2023-02-15T14:59:23;12.30;99.90
9223;DHT22;7557;51.698;3.942;2023-02-15T15:01:55;12.30;99.90
9223;DHT22;7557;51.698;3.942;2023-02-15T15:04:27;12.30;99.90
9223;DHT22;7557;51.698;3.942;2023-02-15T15:07:08;12.30;99.90
9223;DHT22;7557;51.698;3.942;2023-02-15T15:09:38;12.30;99.90
9223;DHT22;7557;51.698;3.942;2023-02-15T15:12:37;12.30;99.90
9223;DHT22;7557;51.698;3.942;2023-02-15T15:15:05;12.30;99.90
9223;DHT22;7557;51.698;3.942;2023-02-15T15:17:58;12.30;99.90
9223;DHT22;7557;51.698;3.942;2023-02-15T15:20:44;12.30;99.90
9223;DHT22;7557;51.698;3.942;2023-02-15T15:23:38;12.30;99.90
9223;DHT22;7557;51.698;3.942;2023-02-15T15:26:23;12.20;99.90
9223;DHT22;7557;51.698;3.942;2023-02-15T15:28:56;12.20;99.90
9223;DHT22;7557;51.698;3.942;2023-02-15T15:31:38;12.10;99.90
9223;DHT22;7557;51.698;3.942;2023-02-15T15:37:30;12.10;99.90
9223;DHT22;7557;51.698;3.942;2023-02-15T15:43:40;12.00;99.90
9223;DHT22;7557;51.698;3.942;2023-02-15T15:46:18;11.90;99.90
9223;DHT22;7557;51.698;3.942;2023-02-15T15:48:51;11.80;99.90
9223;DHT22;7557;51.698;3.942;2023-02-15T15:51:22;11.80;99.90
9223;DHT22;7557;51.698;3.942;2023-02-15T15:53:52;11.80;99.90
9223;DHT22;7557;51.698;3.942;2023-02-15T15:56:22;11.80;99.90
9223;DHT22;7557;51.698;3.942;2023-02-15T15:58:55;11.70;99.90
9223;DHT22;7557;51.698;3.942;2023-02-15T16:01:27;11.70;99.90
9223;DHT22;7557;51.698;3.942;2023-02-15T16:03:56;11.60;99.90
9223;DHT22;7557;51.698;3.942;2023-02-15T16:06:29;11.60;99.90
9223;DHT22;7557;51.698;3.942;2023-02-15T16:08:57;11.60;99.90
9223;DHT22;7557;51.698;3.942;2023-02-15T16:11:27;11.60;99.90
9223;DHT22;7557;51.698;3.942;2023-02-15T16:13:57;11.60;99.90
9223;DHT22;7557;51.698;3.942;2023-02-15T16:16:26;11.50;99.90
9223;DHT22;7557;51.698;3.942;2023-02-15T16:18:55;11.50;99.90
9223;DHT22;7557;51.698;3.942;2023-02-15T16:21:28;11.50;99.90
9223;DHT22;7557;51.698;3.942;2023-02-15T16:24:10;11.50;99.90
9223;DHT22;7557;51.698;3.942;2023-02-15T16:27:24;11.40;99.90
9223;DHT22;7557;51.698;3.942;2023-02-15T16:29:53;11.40;99.90
9223;DHT22;7557;51.698;3.942;2023-02-15T16:32:22;11.30;99.90
9223;DHT22;7557;51.698;3.942;2023-02-15T16:34:52;11.30;99.90
9223;DHT22;7557;51.698;3.942;2023-02-15T16:37:21;11.30;99.90
9223;DHT22;7557;51.698;3.942;2023-02-15T16:39:49;11.30;99.90
9223;DHT22;7557;51.698;3.942;2023-02-15T16:42:17;11.20;99.90
9223;DHT22;7557;51.698;3.942;2023-02-15T16:44:47;11.20;99.90
9223;DHT22;7557;51.698;3.942;2023-02-15T16:47:19;11.10;99.90
9223;DHT22;7557;51.698;3.942;2023-02-15T16:49:49;11.10;99.90
9223;DHT22;7557;51.698;3.942;2023-02-15T16:52:21;11.10;99.90
9223;DHT22;7557;51.698;3.942;2023-02-15T16:54:53;11.00;99.90
9223;DHT22;7557;51.698;3.942;2023-02-15T16:57:24;11.00;99.90
9223;DHT22;7557;51.698;3.942;2023-02-15T16:59:54;11.00;99.90
9223;DHT22;7557;51.698;3.942;2023-02-15T17:02:27;10.90;99.90
9223;DHT22;7557;51.698;3.942;2023-02-15T17:05:10;10.90;99.90
9223;DHT22;7557;51.698;3.942;2023-02-15T17:07:42;10.90;99.90
9223;DHT22;7557;51.698;3.942;2023-02-15T17:10:27;10.80;99.90
9223;DHT22;7557;51.698;3.942;2023-02-15T17:12:59;10.80;99.90
9223;DHT22;7557;51.698;3.942;2023-02-15T17:15:30;10.70;99.90